WZZ5UH LBSF-LIME
Flight info
| Callsign | WZZ5UH |
|---|---|
| Flight time | 1h 40m |
| Altitude | 36000 |
| Route | OGOTA L615 OBLAK DCT BAXON DCT BOA DCT OGPUD DCT BETMU DCT OSBUL |
| Aircraft | A321/M-SDE1E2E3FGIJ1J4RWXY/LB1 |
Departure
| Time | 2026-05-04 16:05 |
|---|---|
| Airport | Sofia Airport (LBSF) |
Arrival
| Time | 2026-05-04 17:45 |
|---|---|
| Airport | Il Caravaggio International Airport (LIME) |
| Time | Latitude | Longitude | Altitude | Speed | Heading |
|---|---|---|---|---|---|
| 2026-05-04 15:39 | 42.69062 | 23.40364 | 1748 ft | 0 kts | 196° |
| 2026-05-04 15:52 | 42.69069 | 23.40367 | 1749 ft | 0 kts | 196° |
| 2026-05-04 15:59 | 42.69064 | 23.40365 | 1749 ft | 2 kts | 196° |
| 2026-05-04 15:59 | 42.69036 | 23.40351 | 1749 ft | 8 kts | 209° |
| 2026-05-04 15:59 | 42.69037 | 23.40263 | 1746 ft | 11 kts | 286° |
| 2026-05-04 15:59 | 42.69063 | 23.40147 | 1745 ft | 14 kts | 287° |
| 2026-05-04 16:00 | 42.69092 | 23.40014 | 1741 ft | 15 kts | 283° |
| 2026-05-04 16:00 | 42.69112 | 23.39869 | 1746 ft | 16 kts | 287° |
| 2026-05-04 16:00 | 42.69145 | 23.39717 | 1747 ft | 17 kts | 286° |
| 2026-05-04 16:00 | 42.69183 | 23.39562 | 1744 ft | 15 kts | 305° |
| 2026-05-04 16:01 | 42.69284 | 23.39550 | 1743 ft | 15 kts | 4° |
| 2026-05-04 16:01 | 42.69394 | 23.39562 | 1748 ft | 16 kts | 5° |
| 2026-05-04 16:01 | 42.69511 | 23.39575 | 1739 ft | 17 kts | 5° |
| 2026-05-04 16:01 | 42.69620 | 23.39587 | 1748 ft | 12 kts | 4° |
| 2026-05-04 16:02 | 42.69663 | 23.39592 | 1745 ft | 0 kts | 4° |
| 2026-05-04 16:03 | 42.69676 | 23.39593 | 1748 ft | 8 kts | 4° |
| 2026-05-04 16:03 | 42.69741 | 23.39606 | 1749 ft | 10 kts | 20° |
| 2026-05-04 16:03 | 42.69770 | 23.39675 | 1746 ft | 6 kts | 90° |
| 2026-05-04 16:03 | 42.69769 | 23.39681 | 1743 ft | 0 kts | 94° |
| 2026-05-04 16:04 | 42.69769 | 23.39683 | 1743 ft | 1 kts | 94° |
| 2026-05-04 16:05 | 42.69760 | 23.39860 | 1750 ft | 51 kts | 95° |
| 2026-05-04 16:05 | 42.69712 | 23.40663 | 1747 ft | 118 kts | 95° |
| 2026-05-04 16:05 | 42.69528 | 23.43672 | 2367 ft | 172 kts | 94° |
| 2026-05-04 16:06 | 42.69418 | 23.45284 | 3107 ft | 173 kts | 92° |
| 2026-05-04 16:06 | 42.69117 | 23.49783 | 4827 ft | 190 kts | 92° |
| 2026-05-04 16:07 | 42.68896 | 23.52324 | 5082 ft | 219 kts | 95° |
| 2026-05-04 16:07 | 42.70694 | 23.58327 | 6215 ft | 260 kts | 37° |
| 2026-05-04 16:08 | 42.72130 | 23.59832 | 7004 ft | 261 kts | 36° |
| 2026-05-04 16:08 | 42.76812 | 23.63435 | 9360 ft | 266 kts | 6° |
| 2026-05-04 16:09 | 42.80443 | 23.61871 | 10346 ft | 298 kts | 337° |
| 2026-05-04 16:09 | 42.84379 | 23.59086 | 10749 ft | 336 kts | 336° |
| 2026-05-04 16:10 | 42.88594 | 23.56059 | 11942 ft | 347 kts | 336° |
| 2026-05-04 16:11 | 42.95125 | 23.51404 | 13863 ft | 360 kts | 336° |
| 2026-05-04 16:11 | 42.97358 | 23.49823 | 14451 ft | 363 kts | 336° |
| 2026-05-04 16:12 | 43.03827 | 23.44206 | 16216 ft | 383 kts | 311° |
| 2026-05-04 16:12 | 43.08467 | 23.35107 | 17995 ft | 394 kts | 307° |
| 2026-05-04 16:13 | 43.11573 | 23.28859 | 19020 ft | 400 kts | 307° |
| 2026-05-04 16:13 | 43.14731 | 23.22537 | 20063 ft | 405 kts | 307° |
| 2026-05-04 16:14 | 43.17933 | 23.16138 | 21089 ft | 410 kts | 306° |
| 2026-05-04 16:14 | 43.21174 | 23.09646 | 22077 ft | 415 kts | 306° |
| 2026-05-04 16:15 | 43.25536 | 23.00878 | 23355 ft | 421 kts | 305° |
| 2026-05-04 16:16 | 43.28848 | 22.94202 | 24038 ft | 425 kts | 304° |
| 2026-05-04 16:16 | 43.33833 | 22.84118 | 24103 ft | 426 kts | 304° |
| 2026-05-04 16:17 | 43.37112 | 22.77287 | 24714 ft | 430 kts | 298° |
| 2026-05-04 16:18 | 43.40522 | 22.65780 | 25790 ft | 437 kts | 290° |
| 2026-05-04 16:18 | 43.41615 | 22.61867 | 26134 ft | 439 kts | 291° |
| 2026-05-04 16:19 | 43.44912 | 22.50041 | 27230 ft | 445 kts | 291° |
| 2026-05-04 16:19 | 43.47128 | 22.42052 | 27876 ft | 449 kts | 291° |
| 2026-05-04 16:20 | 43.49686 | 22.29559 | 28810 ft | 457 kts | 282° |
| 2026-05-04 16:20 | 43.50920 | 22.20947 | 29483 ft | 461 kts | 283° |
| 2026-05-04 16:21 | 43.52784 | 22.07928 | 30605 ft | 461 kts | 283° |
| 2026-05-04 16:22 | 43.54013 | 21.99283 | 31344 ft | 459 kts | 284° |
| 2026-05-04 16:22 | 43.55840 | 21.86368 | 32427 ft | 456 kts | 284° |
| 2026-05-04 16:23 | 43.57642 | 21.73574 | 33476 ft | 454 kts | 284° |
| 2026-05-04 16:24 | 43.60001 | 21.56515 | 34760 ft | 450 kts | 284° |
| 2026-05-04 16:25 | 43.61156 | 21.48074 | 35404 ft | 447 kts | 284° |
| 2026-05-04 16:26 | 43.63450 | 21.31257 | 36105 ft | 445 kts | 284° |
| 2026-05-04 16:26 | 43.65152 | 21.18678 | 36103 ft | 443 kts | 284° |
| 2026-05-04 16:28 | 43.67933 | 20.97791 | 36102 ft | 442 kts | 284° |
| 2026-05-04 16:29 | 43.71778 | 20.68490 | 36100 ft | 443 kts | 283° |
| 2026-05-04 16:31 | 43.74465 | 20.47590 | 36085 ft | 442 kts | 283° |
| 2026-05-04 16:32 | 43.77643 | 20.22515 | 36089 ft | 441 kts | 283° |
| 2026-05-04 16:33 | 43.79715 | 20.05832 | 36091 ft | 438 kts | 283° |
| 2026-05-04 16:34 | 43.81248 | 19.93358 | 36092 ft | 438 kts | 283° |
| 2026-05-04 16:35 | 43.84275 | 19.68476 | 36079 ft | 437 kts | 282° |
| 2026-05-04 16:36 | 43.85777 | 19.56008 | 36081 ft | 437 kts | 282° |
| 2026-05-04 16:37 | 43.87251 | 19.43526 | 36066 ft | 437 kts | 282° |
| 2026-05-04 16:38 | 43.89204 | 19.26908 | 36073 ft | 436 kts | 282° |
| 2026-05-04 16:39 | 43.91616 | 19.06132 | 36075 ft | 436 kts | 281° |
| 2026-05-04 16:40 | 43.93488 | 18.89588 | 36068 ft | 435 kts | 281° |
| 2026-05-04 16:41 | 43.95819 | 18.68846 | 36062 ft | 434 kts | 281° |
| 2026-05-04 16:43 | 43.98099 | 18.48205 | 36059 ft | 433 kts | 281° |
| 2026-05-04 16:43 | 43.99448 | 18.35813 | 36058 ft | 432 kts | 281° |
| 2026-05-04 16:45 | 44.02109 | 18.11021 | 36055 ft | 433 kts | 281° |
| 2026-05-04 16:46 | 44.04276 | 17.90375 | 36054 ft | 431 kts | 281° |
| 2026-05-04 16:47 | 44.05976 | 17.73891 | 36062 ft | 431 kts | 281° |
| 2026-05-04 16:48 | 44.07658 | 17.57407 | 36069 ft | 431 kts | 280° |
| 2026-05-04 16:49 | 44.09306 | 17.40976 | 36071 ft | 430 kts | 280° |
| 2026-05-04 16:50 | 44.10940 | 17.24490 | 36077 ft | 429 kts | 280° |
| 2026-05-04 16:51 | 44.12140 | 17.12157 | 36082 ft | 429 kts | 279° |
| 2026-05-04 16:52 | 44.13720 | 16.95704 | 36090 ft | 429 kts | 279° |
| 2026-05-04 16:53 | 44.14889 | 16.83386 | 36096 ft | 427 kts | 279° |
| 2026-05-04 16:54 | 44.16441 | 16.66998 | 36105 ft | 427 kts | 279° |
| 2026-05-04 16:55 | 44.18700 | 16.42391 | 36112 ft | 427 kts | 278° |
| 2026-05-04 16:56 | 44.20529 | 16.21915 | 36115 ft | 427 kts | 278° |
| 2026-05-04 16:57 | 44.21626 | 16.09609 | 36110 ft | 426 kts | 278° |
| 2026-05-04 16:58 | 44.23049 | 15.93230 | 36109 ft | 425 kts | 277° |
| 2026-05-04 17:00 | 44.25129 | 15.68710 | 36108 ft | 423 kts | 277° |
| 2026-05-04 17:01 | 44.26833 | 15.48339 | 36107 ft | 423 kts | 277° |
| 2026-05-04 17:02 | 44.28151 | 15.32035 | 36106 ft | 423 kts | 277° |
| 2026-05-04 17:03 | 44.29140 | 15.19807 | 36113 ft | 423 kts | 277° |
| 2026-05-04 17:03 | 44.30115 | 15.07583 | 36098 ft | 422 kts | 277° |
| 2026-05-04 17:04 | 44.31388 | 14.91224 | 36102 ft | 424 kts | 276° |
| 2026-05-04 17:05 | 44.32631 | 14.74906 | 36102 ft | 424 kts | 276° |
| 2026-05-04 17:06 | 44.33564 | 14.62615 | 36099 ft | 424 kts | 276° |
| 2026-05-04 17:07 | 44.34276 | 14.53042 | 36096 ft | 424 kts | 276° |
| 2026-05-04 17:07 | 44.34974 | 14.43519 | 36096 ft | 424 kts | 276° |
| 2026-05-04 17:08 | 44.35862 | 14.31215 | 36097 ft | 425 kts | 276° |
| 2026-05-04 17:09 | 44.36452 | 14.22952 | 36090 ft | 425 kts | 276° |
| 2026-05-04 17:09 | 44.37034 | 14.14735 | 36096 ft | 425 kts | 276° |
| 2026-05-04 17:10 | 44.38464 | 13.94202 | 36087 ft | 424 kts | 275° |
| 2026-05-04 17:11 | 44.39024 | 13.85952 | 36096 ft | 426 kts | 275° |
| 2026-05-04 17:12 | 44.39845 | 13.73659 | 36081 ft | 425 kts | 275° |
| 2026-05-04 17:13 | 44.41199 | 13.53100 | 36083 ft | 423 kts | 275° |
| 2026-05-04 17:14 | 44.42261 | 13.36746 | 36085 ft | 422 kts | 275° |
| 2026-05-04 17:15 | 44.43049 | 13.24485 | 36079 ft | 422 kts | 275° |
| 2026-05-04 17:16 | 44.44067 | 13.08171 | 36075 ft | 420 kts | 275° |
| 2026-05-04 17:17 | 44.45053 | 12.91924 | 36060 ft | 418 kts | 275° |
| 2026-05-04 17:18 | 44.46018 | 12.75740 | 36082 ft | 417 kts | 275° |
| 2026-05-04 17:19 | 44.46961 | 12.59567 | 36086 ft | 417 kts | 275° |
| 2026-05-04 17:20 | 44.47876 | 12.43388 | 36088 ft | 417 kts | 274° |
| 2026-05-04 17:20 | 44.48557 | 12.31251 | 36094 ft | 417 kts | 274° |
| 2026-05-04 17:21 | 44.49428 | 12.15114 | 36106 ft | 417 kts | 274° |
| 2026-05-04 17:22 | 44.49851 | 12.07020 | 36106 ft | 416 kts | 274° |
| 2026-05-04 17:23 | 44.50697 | 11.90901 | 36129 ft | 415 kts | 274° |
| 2026-05-04 17:23 | 44.51920 | 11.83062 | 36129 ft | 417 kts | 296° |
| 2026-05-04 17:24 | 44.53544 | 11.79675 | 36148 ft | 421 kts | 304° |
| 2026-05-04 17:25 | 44.60644 | 11.66597 | 36116 ft | 424 kts | 304° |
| 2026-05-04 17:25 | 44.64258 | 11.59912 | 35935 ft | 435 kts | 304° |
| 2026-05-04 17:26 | 44.67926 | 11.53092 | 34516 ft | 439 kts | 304° |
| 2026-05-04 17:26 | 44.73484 | 11.42705 | 32247 ft | 448 kts | 304° |
| 2026-05-04 17:27 | 44.77255 | 11.35648 | 30792 ft | 455 kts | 304° |
| 2026-05-04 17:27 | 44.81081 | 11.28479 | 29291 ft | 460 kts | 304° |
| 2026-05-04 17:28 | 44.84908 | 11.21284 | 27757 ft | 457 kts | 305° |
| 2026-05-04 17:29 | 44.90709 | 11.10383 | 25555 ft | 469 kts | 304° |
| 2026-05-04 17:29 | 44.96569 | 10.99292 | 23538 ft | 470 kts | 304° |
| 2026-05-04 17:30 | 45.02350 | 10.88312 | 21502 ft | 458 kts | 304° |
| 2026-05-04 17:31 | 45.06107 | 10.81152 | 20255 ft | 449 kts | 305° |
| 2026-05-04 17:31 | 45.11619 | 10.70628 | 18483 ft | 438 kts | 304° |
| 2026-05-04 17:32 | 45.15213 | 10.63734 | 17191 ft | 432 kts | 305° |
| 2026-05-04 17:33 | 45.20513 | 10.53557 | 15284 ft | 424 kts | 304° |
| 2026-05-04 17:33 | 45.22253 | 10.50195 | 14670 ft | 421 kts | 304° |
| 2026-05-04 17:34 | 45.27399 | 10.40241 | 12771 ft | 409 kts | 304° |
| 2026-05-04 17:34 | 45.29058 | 10.37038 | 12131 ft | 397 kts | 304° |
| 2026-05-04 17:35 | 45.33713 | 10.28016 | 10594 ft | 360 kts | 304° |
| 2026-05-04 17:35 | 45.36633 | 10.22319 | 9600 ft | 354 kts | 304° |
| 2026-05-04 17:35 | 45.38079 | 10.19498 | 9080 ft | 352 kts | 304° |
| 2026-05-04 17:36 | 45.39512 | 10.16697 | 8547 ft | 348 kts | 304° |
| 2026-05-04 17:36 | 45.40914 | 10.13958 | 8061 ft | 336 kts | 304° |
| 2026-05-04 17:36 | 45.42265 | 10.11321 | 7571 ft | 324 kts | 304° |
| 2026-05-04 17:36 | 45.43554 | 10.08802 | 7088 ft | 314 kts | 304° |
| 2026-05-04 17:37 | 45.44820 | 10.06320 | 6602 ft | 306 kts | 304° |
| 2026-05-04 17:37 | 45.46056 | 10.03897 | 6091 ft | 299 kts | 305° |
| 2026-05-04 17:37 | 45.47285 | 10.01507 | 5583 ft | 293 kts | 307° |
| 2026-05-04 17:37 | 45.48786 | 9.99672 | 5157 ft | 286 kts | 333° |
| 2026-05-04 17:38 | 45.50690 | 9.98995 | 4786 ft | 277 kts | 1° |
| 2026-05-04 17:38 | 45.52517 | 9.99628 | 4404 ft | 269 kts | 29° |
| 2026-05-04 17:38 | 45.53870 | 10.01372 | 4058 ft | 260 kts | 59° |
| 2026-05-04 17:38 | 45.54435 | 10.03702 | 4001 ft | 242 kts | 81° |
| 2026-05-04 17:39 | 45.55817 | 10.07527 | 4026 ft | 217 kts | 30° |
| 2026-05-04 17:39 | 45.57254 | 10.08166 | 4028 ft | 225 kts | 1° |
| 2026-05-04 17:39 | 45.58804 | 10.07717 | 4024 ft | 232 kts | 332° |
| 2026-05-04 17:40 | 45.59986 | 10.06197 | 4017 ft | 231 kts | 301° |
| 2026-05-04 17:40 | 45.60540 | 10.04051 | 4026 ft | 232 kts | 284° |
| 2026-05-04 17:40 | 45.60950 | 10.01829 | 4014 ft | 231 kts | 284° |
| 2026-05-04 17:40 | 45.61357 | 9.99647 | 4012 ft | 219 kts | 284° |
| 2026-05-04 17:41 | 45.61739 | 9.97619 | 4010 ft | 209 kts | 284° |
| 2026-05-04 17:41 | 45.62120 | 9.95598 | 3960 ft | 212 kts | 284° |
| 2026-05-04 17:41 | 45.62500 | 9.93581 | 3738 ft | 208 kts | 285° |
| 2026-05-04 17:41 | 45.62863 | 9.91655 | 3508 ft | 198 kts | 284° |
| 2026-05-04 17:42 | 45.63212 | 9.89802 | 3233 ft | 188 kts | 285° |
| 2026-05-04 17:42 | 45.63542 | 9.88042 | 2987 ft | 178 kts | 284° |
| 2026-05-04 17:42 | 45.63856 | 9.86369 | 2757 ft | 170 kts | 285° |
| 2026-05-04 17:42 | 45.64154 | 9.84781 | 2520 ft | 160 kts | 285° |
| 2026-05-04 17:43 | 45.64430 | 9.83311 | 2353 ft | 147 kts | 285° |
| 2026-05-04 17:43 | 45.64687 | 9.81937 | 2142 ft | 141 kts | 284° |
| 2026-05-04 17:43 | 45.64938 | 9.80592 | 1935 ft | 140 kts | 285° |
| 2026-05-04 17:43 | 45.65191 | 9.79240 | 1752 ft | 141 kts | 286° |
| 2026-05-04 17:44 | 45.65444 | 9.77891 | 1564 ft | 141 kts | 284° |
| 2026-05-04 17:44 | 45.65700 | 9.76533 | 1393 ft | 142 kts | 286° |
| 2026-05-04 17:44 | 45.65955 | 9.75171 | 1193 ft | 141 kts | 285° |
| 2026-05-04 17:44 | 45.66197 | 9.73819 | 1019 ft | 141 kts | 285° |
| 2026-05-04 17:45 | 45.66451 | 9.72463 | 839 ft | 141 kts | 285° |
| 2026-05-04 17:45 | 45.66691 | 9.71193 | 787 ft | 115 kts | 285° |
| 2026-05-04 17:45 | 45.66846 | 9.70356 | 787 ft | 54 kts | 285° |
| 2026-05-04 17:45 | 45.66885 | 9.70078 | 787 ft | 16 kts | 259° |
| 2026-05-04 17:46 | 45.66850 | 9.70060 | 787 ft | 5 kts | 155° |
| 2026-05-04 17:46 | 45.66815 | 9.70083 | 787 ft | 6 kts | 155° |
| 2026-05-04 17:46 | 45.66770 | 9.70114 | 787 ft | 7 kts | 155° |
| 2026-05-04 17:46 | 45.66735 | 9.70137 | 787 ft | 8 kts | 154° |
| 2026-05-04 17:47 | 45.66703 | 9.70223 | 787 ft | 12 kts | 106° |
| 2026-05-04 17:47 | 45.66678 | 9.70344 | 787 ft | 13 kts | 106° |
| 2026-05-04 17:47 | 45.66653 | 9.70480 | 787 ft | 15 kts | 104° |
| 2026-05-04 17:47 | 45.66633 | 9.70590 | 787 ft | 7 kts | 105° |
| 2026-05-04 17:48 | 45.66618 | 9.70665 | 787 ft | 7 kts | 119° |
| 2026-05-04 17:48 | 45.66587 | 9.70660 | 787 ft | 5 kts | 196° |
| 2026-05-04 17:48 | 45.66565 | 9.70651 | 787 ft | 1 kts | 195° |
| 2026-05-04 17:48 | 45.66550 | 9.70645 | 787 ft | 4 kts | 196° |
| 2026-05-04 17:49 | 45.66537 | 9.70640 | 787 ft | 0 kts | 195° |